Kings Point — WDH9083 — position and weather

sailwx.info

Track history (hours):
 
Tides and Currents Weather Stations Pressure Air Temp Water Temp Dewpoint Dewpoint Depression Visibility Wind Speed Wind Dir Waves Ship Positions

Kings Point

Owner: Vane Line Bunkering, Inc., Philadelphia, PA. More information available from US FCC via Universal Licensing System and Coast Guard Vessel Documentation Center.

Last reported at 2018-Jan-18 02:00 UTC. Time now 2018-Jan-18 02:21 UTC.
Position N 40°39' W 074°10'.

Length 33 m; draft 3 m.

Type: Tug. MMSI: 338329000.

Date/timePositionNaut miles runAvg speedWind from/ knotsBaromVisibWave heightAir tempDewpointWater temp
2018-Jan-18 02:00N 40°39' W 074°10'5 9.0
2018-Jan-18 01:30N 40°35' W 074°13'0 0.2
2018-Jan-17 23:42N 40°35' W 074°12'  
2018-Jan-12 14:59N 40°39' W 074°05'1 1.3
2018-Jan-12 14:30N 40°39' W 074°04'3 6.8
2018-Jan-12 14:00N 40°36' W 074°02'1 0.9
2018-Jan-12 13:27N 40°36' W 074°02'0 0.1
2018-Jan-12 12:58N 40°36' W 074°02'0 0.1
2018-Jan-12 12:30N 40°36' W 074°02'0 0.1
2018-Jan-12 12:00N 40°36' W 074°02'0 0.8
2018-Jan-12 11:30N 40°36' W 074°02'4 8.1
2018-Jan-12 11:00N 40°40' W 074°04'0 0.0
2018-Jan-12 10:30N 40°40' W 074°04'0 0.0
2018-Jan-12 10:00N 40°40' W 074°04'0 0.0
2018-Jan-12 09:30N 40°40' W 074°04'3 5.1
2018-Jan-12 09:00N 40°39' W 074°07'3 6.2
2018-Jan-12 08:30N 40°42' W 074°07'1 1.5
2018-Jan-12 08:00N 40°43' W 074°07'1 1.1
2018-Jan-12 07:30N 40°42' W 074°07'3 6.3
2018-Jan-12 07:00N 40°39' W 074°09'2 3.6
2018-Jan-12 06:30N 40°39' W 074°11'1 1.4
2018-Jan-12 06:00N 40°39' W 074°10'4 8.2
2018-Jan-12 05:30N 40°39' W 074°05'0 0.1
2018-Jan-12 05:00N 40°39' W 074°05'0 0.8
2018-Jan-12 04:30N 40°39' W 074°05'1 1.6
2018-Jan-12 04:00N 40°39' W 074°06'0 0.3
2018-Jan-12 03:30N 40°39' W 074°07'2 3.7
2018-Jan-12 03:00N 40°39' W 074°09'1 2.9
2018-Jan-12 02:30N 40°40' W 074°08'0 0.0
2018-Jan-12 02:00N 40°40' W 074°08'2 3.0
2018-Jan-12 01:28N 40°39' W 074°08'3 5.8
2018-Jan-12 01:00N 40°39' W 074°05'0 1.0
2018-Jan-12 00:30N 40°39' W 074°04'2 3.1
2018-Jan-12 00:00N 40°40' W 074°03'0 0.1
2018-Jan-11 23:31N 40°40' W 074°03'2 4.7
2018-Jan-11 23:00N 40°39' W 074°06'0 0.1
2018-Jan-11 22:30N 40°39' W 074°06'2 4.2
2018-Jan-11 22:00N 40°39' W 074°03'1 1.3
2018-Jan-11 21:30N 40°39' W 074°02'1 1.9
2018-Jan-11 21:00N 40°40' W 074°01'2 3.8
2018-Jan-11 20:30N 40°41' W 074°00'1 2.5
2018-Jan-11 20:00N 40°41' W 074°02'4 8.2
2018-Jan-11 19:29N 40°39' W 074°07'1 0.6
2018-Jan-11 17:15N 40°39' W 074°08'310.7
2018-Jan-11 17:00N 40°39' W 074°05'2 3.7
2018-Jan-11 16:30N 40°40' W 074°03'1 2.2
2018-Jan-11 16:00N 40°40' W 074°04'2 2.9
2018-Jan-11 15:26N 40°39' W 074°06'3 7.7
2018-Jan-11 15:00N 40°39' W 074°10'2 1.2
2018-Jan-11 12:56N 40°40' W 074°08'2 4.9
2018-Jan-11 12:30N 40°43' W 074°07'1 2.4
2018-Jan-11 12:00N 40°41' W 074°08'3 5.7
2018-Jan-11 11:30N 40°39' W 074°08'3 6.9
2018-Jan-11 11:00N 40°39' W 074°04'4 7.4
2018-Jan-11 10:30N 40°42' W 074°00'2 3.2
2018-Jan-11 10:00N 40°42' W 073°58'1 2.6
2018-Jan-11 09:30N 40°42' W 074°00'5 9.9
2018-Jan-11 09:00N 40°39' W 074°05'2 0.8
2018-Jan-11 06:02N 40°39' W 074°08'0 9.8
2018-Jan-11 06:00N 40°39' W 074°08'3 6.2
2018-Jan-11 05:30N 40°40' W 074°04'0 0.2
2018-Jan-11 05:00N 40°40' W 074°04'0 0.0
2018-Jan-11 04:30N 40°40' W 074°04'0 0.0
2018-Jan-11 04:00N 40°40' W 074°04'0 0.0
2018-Jan-11 03:30N 40°40' W 074°04'2 3.1
2018-Jan-11 03:00N 40°39' W 074°06'0 0.3
2018-Jan-11 02:24N 40°39' W 074°06'3 7.6
2018-Jan-11 02:00N 40°39' W 074°02'2 3.4
2018-Jan-11 01:30N 40°40' W 074°00'0 0.1
2018-Jan-11 01:00N 40°40' W 074°00'0 0.0
2018-Jan-11 00:30N 40°40' W 074°00'0 0.0
2018-Jan-11 00:00N 40°40' W 074°00'0 0.0
2018-Jan-10 23:30N 40°40' W 074°00'0 0.0
2018-Jan-10 23:00N 40°40' W 074°00'0 0.0
2018-Jan-10 22:30N 40°40' W 074°00'0 0.0
2018-Jan-10 22:00N 40°40' W 074°00'0 0.0
2018-Jan-10 21:30N 40°40' W 074°00'0 0.0
2018-Jan-10 21:00N 40°40' W 074°00'0 0.0
2018-Jan-10 20:30N 40°40' W 074°00'0 0.0
2018-Jan-10 20:00N 40°40' W 074°00'0 0.0
2018-Jan-10 19:30N 40°40' W 074°00'0 0.0
2018-Jan-10 19:00N 40°40' W 074°00'0 0.0
2018-Jan-10 18:30N 40°40' W 074°00'3 5.5
2018-Jan-10 18:00N 40°40' W 074°04'1 1.2
2018-Jan-10 17:30N 40°40' W 074°04'0 0.0
2018-Jan-10 17:00N 40°40' W 074°04'0 0.0
2018-Jan-10 16:30N 40°40' W 074°04'0 0.0
2018-Jan-10 16:00N 40°40' W 074°04'0 0.0
2018-Jan-10 15:30N 40°40' W 074°04'0 0.0
2018-Jan-10 15:00N 40°40' W 074°04'0 0.0
2018-Jan-10 14:30N 40°40' W 074°04'0 0.0
2018-Jan-10 14:00N 40°40' W 074°04'0 0.0
2018-Jan-10 13:30N 40°40' W 074°04'0 0.0
2018-Jan-10 13:00N 40°40' W 074°04'0 0.0
2018-Jan-10 12:30N 40°40' W 074°04'0 0.0
2018-Jan-10 12:01N 40°40' W 074°04'0 0.0
2018-Jan-10 11:30N 40°40' W 074°04'1 1.0
2018-Jan-10 10:53N 40°40' W 074°05'1 1.6
2018-Jan-10 10:30N 40°40' W 074°04'2 3.4
2018-Jan-10 09:56N 40°39' W 074°06'2 3.8
2018-Jan-10 09:30N 40°40' W 074°05'0 0.0
2018-Jan-10 08:56N 40°40' W 074°05'0 0.0
2018-Jan-10 08:28N 40°40' W 074°05'2 3.9
2018-Jan-10 08:01N 40°39' W 074°07'0 0.2
2018-Jan-10 07:29N 40°39' W 074°07'1 2.3
2018-Jan-10 07:00N 40°39' W 074°05'1 2.5
2018-Jan-10 06:30N 40°40' W 074°04'3 6.5
2018-Jan-10 06:01N 40°41' W 074°00'0 0.1
2018-Jan-10 05:31N 40°42' W 074°00'0 0.1
2018-Jan-10 05:01N 40°42' W 074°00'1 3.0
2018-Jan-10 04:30N 40°40' W 074°00'2 3.5
2018-Jan-10 04:00N 40°39' W 074°02'1 2.2
2018-Jan-10 03:30N 40°40' W 074°01'1 1.4
2018-Jan-10 03:01N 40°40' W 074°00'0 0.1
2018-Jan-10 02:30N 40°40' W 074°00'0 0.2
2018-Jan-10 02:00N 40°40' W 074°00'2 4.8
2018-Jan-10 01:30N 40°39' W 074°03'1 1.9
2018-Jan-10 01:00N 40°40' W 074°04'0 0.0
2018-Jan-10 00:30N 40°40' W 074°04'0 0.0
2018-Jan-10 00:00N 40°40' W 074°04'0 0.0
2018-Jan-09 23:30N 40°40' W 074°04'0 0.0
2018-Jan-09 23:00N 40°40' W 074°04'2 3.3
2018-Jan-09 22:30N 40°39' W 074°06'2 0.9
2018-Jan-09 19:47N 40°39' W 074°09'3 9.7
2018-Jan-09 19:30N 40°39' W 074°05'4 8.8
2018-Jan-09 19:00N 40°41' W 074°00'1 1.9
2018-Jan-09 18:31N 40°41' W 074°01'1 2.1
2018-Jan-09 18:00N 40°40' W 074°00'0 0.0
2018-Jan-09 17:30N 40°40' W 074°00'0 0.4
2018-Jan-09 17:00N 40°40' W 074°00'2 3.9
2018-Jan-09 16:30N 40°39' W 074°02'2 3.7
2018-Jan-09 16:00N 40°40' W 074°04'0 0.0
2018-Jan-09 15:30N 40°40' W 074°04'0 0.0
2018-Jan-09 15:00N 40°40' W 074°04'0 0.0
2018-Jan-09 14:30N 40°40' W 074°04'0 0.0
2018-Jan-09 14:00N 40°40' W 074°04'0 0.0
2018-Jan-09 13:30N 40°40' W 074°04'0 0.0
2018-Jan-09 13:00N 40°40' W 074°04'0 0.0
2018-Jan-09 12:30N 40°40' W 074°04'0 0.0
2018-Jan-09 12:00N 40°40' W 074°04'0 0.0
2018-Jan-09 11:30N 40°40' W 074°04'1 2.6
2018-Jan-09 11:00N 40°39' W 074°05'0 0.3
2018-Jan-09 10:30N 40°39' W 074°06'3 5.0
2018-Jan-09 10:00N 40°40' W 074°03'2 3.0
2018-Jan-09 09:30N 40°41' W 074°01'5 1.6
2018-Jan-09 06:45N 40°44' W 073°56'1 2.5
2018-Jan-09 06:16N 40°44' W 073°58'310.8
2018-Jan-09 06:00N 40°42' W 074°01'2 4.2
2018-Jan-09 05:30N 40°41' W 074°03'3 5.5
2018-Jan-09 05:00N 40°39' W 074°06'2 3.6
2018-Jan-09 04:24N 40°39' W 074°08'2 2.2
2018-Jan-09 03:24N 40°41' W 074°09'1 1.6
2018-Jan-09 03:00N 40°40' W 074°08'0 0.1
2018-Jan-09 02:28N 40°40' W 074°08'2 2.7
2018-Jan-09 01:49N 40°39' W 074°07'0 0.3
2018-Jan-09 01:29N 40°39' W 074°07'3 6.4
2018-Jan-09 01:00N 40°39' W 074°03'2 4.6
2018-Jan-09 00:30N 40°40' W 074°00'0 0.0
2018-Jan-09 00:00N 40°40' W 074°00'0 0.0
2018-Jan-08 23:30N 40°40' W 074°00'0 0.1
2018-Jan-08 23:00N 40°40' W 074°00'0 0.1
2018-Jan-08 22:30N 40°40' W 074°00'0 0.1
2018-Jan-08 22:00N 40°40' W 074°00'0 0.0
2018-Jan-08 21:30N 40°40' W 074°00'1 2.2
2018-Jan-08 21:00N 40°41' W 074°01'1 0.6
2018-Jan-08 18:35N 40°42' W 073°60'1 9.7
2018-Jan-08 18:30N 40°41' W 074°00'1 2.9
2018-Jan-08 18:00N 40°40' W 074°01'0 0.0
2018-Jan-08 17:30N 40°40' W 074°01'0 0.0
2018-Jan-08 17:00N 40°40' W 074°01'0 0.0
2018-Jan-08 16:30N 40°40' W 074°01'3 6.5
2018-Jan-08 16:00N 40°39' W 074°05'4 8.3
2018-Jan-08 15:30N 40°39' W 074°10'1 0.4
2018-Jan-08 13:51N 40°39' W 074°11'4 8.6
2018-Jan-08 13:21N 40°39' W 074°06'3 7.8
2018-Jan-08 13:00N 40°39' W 074°02'1 2.8
2018-Jan-08 12:30N 40°40' W 074°00'1 1.4
2018-Jan-08 12:00N 40°40' W 074°01'5 9.1
2018-Jan-08 11:30N 40°39' W 074°07'4 2.4
2018-Jan-08 09:46N 40°37' W 074°12'3 6.3
2018-Jan-08 09:21N 40°39' W 074°09'3 7.2
2018-Jan-08 08:55N 40°39' W 074°05'3 7.7
2018-Jan-08 08:30N 40°40' W 074°01'0 0.4
2018-Jan-08 08:00N 40°40' W 074°01'2 3.3
2018-Jan-08 07:30N 40°41' W 074°03'1 1.9
2018-Jan-08 07:00N 40°40' W 074°03'4 2.1
2018-Jan-08 05:08N 40°41' W 074°08'0 0.2
2018-Jan-08 03:33N 40°41' W 074°08'110.6
2018-Jan-08 03:30N 40°40' W 074°08'3 5.8
2018-Jan-08 03:00N 40°39' W 074°05'1 2.6
2018-Jan-08 02:30N 40°39' W 074°03'  
Track history (hours):
 
Tides and Currents Weather Stations Pressure Air Temp Water Temp Dewpoint Dewpoint Depression Visibility Wind Speed Wind Dir Waves Ship Positions

Kings Point

Owner: Vane Line Bunkering, Inc., Philadelphia, PA. More information available from US FCC via Universal Licensing System and Coast Guard Vessel Documentation Center.

Last reported at 2018-Jan-18 02:00 UTC. Time now 2018-Jan-18 02:21 UTC.
Position N 40°39' W 074°10'.

Length 33 m; draft 3 m.

Type: Tug. MMSI: 338329000.

Date/timePositionNaut miles runAvg speedWind from/ knotsBaromVisibWave heightAir tempDewpointWater temp
2018-Jan-18 02:00N 40°39' W 074°10'5 9.0
2018-Jan-18 01:30N 40°35' W 074°13'0 0.2
2018-Jan-17 23:42N 40°35' W 074°12'  
2018-Jan-12 14:59N 40°39' W 074°05'1 1.3
2018-Jan-12 14:30N 40°39' W 074°04'3 6.8
2018-Jan-12 14:00N 40°36' W 074°02'1 0.9
2018-Jan-12 13:27N 40°36' W 074°02'0 0.1
2018-Jan-12 12:58N 40°36' W 074°02'0 0.1
2018-Jan-12 12:30N 40°36' W 074°02'0 0.1
2018-Jan-12 12:00N 40°36' W 074°02'0 0.8
2018-Jan-12 11:30N 40°36' W 074°02'4 8.1
2018-Jan-12 11:00N 40°40' W 074°04'0 0.0
2018-Jan-12 10:30N 40°40' W 074°04'0 0.0
2018-Jan-12 10:00N 40°40' W 074°04'0 0.0
2018-Jan-12 09:30N 40°40' W 074°04'3 5.1
2018-Jan-12 09:00N 40°39' W 074°07'3 6.2
2018-Jan-12 08:30N 40°42' W 074°07'1 1.5
2018-Jan-12 08:00N 40°43' W 074°07'1 1.1
2018-Jan-12 07:30N 40°42' W 074°07'3 6.3
2018-Jan-12 07:00N 40°39' W 074°09'2 3.6
2018-Jan-12 06:30N 40°39' W 074°11'1 1.4
2018-Jan-12 06:00N 40°39' W 074°10'4 8.2
2018-Jan-12 05:30N 40°39' W 074°05'0 0.1
2018-Jan-12 05:00N 40°39' W 074°05'0 0.8
2018-Jan-12 04:30N 40°39' W 074°05'1 1.6
2018-Jan-12 04:00N 40°39' W 074°06'0 0.3
2018-Jan-12 03:30N 40°39' W 074°07'2 3.7
2018-Jan-12 03:00N 40°39' W 074°09'1 2.9
2018-Jan-12 02:30N 40°40' W 074°08'0 0.0
2018-Jan-12 02:00N 40°40' W 074°08'2 3.0
2018-Jan-12 01:28N 40°39' W 074°08'3 5.8
2018-Jan-12 01:00N 40°39' W 074°05'0 1.0
2018-Jan-12 00:30N 40°39' W 074°04'2 3.1
2018-Jan-12 00:00N 40°40' W 074°03'0 0.1
2018-Jan-11 23:31N 40°40' W 074°03'2 4.7
2018-Jan-11 23:00N 40°39' W 074°06'0 0.1
2018-Jan-11 22:30N 40°39' W 074°06'2 4.2
2018-Jan-11 22:00N 40°39' W 074°03'1 1.3
2018-Jan-11 21:30N 40°39' W 074°02'1 1.9
2018-Jan-11 21:00N 40°40' W 074°01'2 3.8
2018-Jan-11 20:30N 40°41' W 074°00'1 2.5
2018-Jan-11 20:00N 40°41' W 074°02'4 8.2
2018-Jan-11 19:29N 40°39' W 074°07'1 0.6
2018-Jan-11 17:15N 40°39' W 074°08'310.7
2018-Jan-11 17:00N 40°39' W 074°05'2 3.7
2018-Jan-11 16:30N 40°40' W 074°03'1 2.2
2018-Jan-11 16:00N 40°40' W 074°04'2 2.9
2018-Jan-11 15:26N 40°39' W 074°06'3 7.7
2018-Jan-11 15:00N 40°39' W 074°10'2 1.2
2018-Jan-11 12:56N 40°40' W 074°08'2 4.9
2018-Jan-11 12:30N 40°43' W 074°07'1 2.4
2018-Jan-11 12:00N 40°41' W 074°08'3 5.7
2018-Jan-11 11:30N 40°39' W 074°08'3 6.9
2018-Jan-11 11:00N 40°39' W 074°04'4 7.4
2018-Jan-11 10:30N 40°42' W 074°00'2 3.2
2018-Jan-11 10:00N 40°42' W 073°58'1 2.6
2018-Jan-11 09:30N 40°42' W 074°00'5 9.9
2018-Jan-11 09:00N 40°39' W 074°05'2 0.8
2018-Jan-11 06:02N 40°39' W 074°08'0 9.8
2018-Jan-11 06:00N 40°39' W 074°08'3 6.2
2018-Jan-11 05:30N 40°40' W 074°04'0 0.2
2018-Jan-11 05:00N 40°40' W 074°04'0 0.0
2018-Jan-11 04:30N 40°40' W 074°04'0 0.0
2018-Jan-11 04:00N 40°40' W 074°04'0 0.0
2018-Jan-11 03:30N 40°40' W 074°04'2 3.1
2018-Jan-11 03:00N 40°39' W 074°06'0 0.3
2018-Jan-11 02:24N 40°39' W 074°06'3 7.6
2018-Jan-11 02:00N 40°39' W 074°02'2 3.4
2018-Jan-11 01:30N 40°40' W 074°00'0 0.1
2018-Jan-11 01:00N 40°40' W 074°00'0 0.0
2018-Jan-11 00:30N 40°40' W 074°00'0 0.0
2018-Jan-11 00:00N 40°40' W 074°00'0 0.0
2018-Jan-10 23:30N 40°40' W 074°00'0 0.0
2018-Jan-10 23:00N 40°40' W 074°00'0 0.0
2018-Jan-10 22:30N 40°40' W 074°00'0 0.0
2018-Jan-10 22:00N 40°40' W 074°00'0 0.0
2018-Jan-10 21:30N 40°40' W 074°00'0 0.0
2018-Jan-10 21:00N 40°40' W 074°00'0 0.0
2018-Jan-10 20:30N 40°40' W 074°00'0 0.0
2018-Jan-10 20:00N 40°40' W 074°00'0 0.0
2018-Jan-10 19:30N 40°40' W 074°00'0 0.0
2018-Jan-10 19:00N 40°40' W 074°00'0 0.0
2018-Jan-10 18:30N 40°40' W 074°00'3 5.5
2018-Jan-10 18:00N 40°40' W 074°04'1 1.2
2018-Jan-10 17:30N 40°40' W 074°04'0 0.0
2018-Jan-10 17:00N 40°40' W 074°04'0 0.0
2018-Jan-10 16:30N 40°40' W 074°04'0 0.0
2018-Jan-10 16:00N 40°40' W 074°04'0 0.0
2018-Jan-10 15:30N 40°40' W 074°04'0 0.0
2018-Jan-10 15:00N 40°40' W 074°04'0 0.0
2018-Jan-10 14:30N 40°40' W 074°04'0 0.0
2018-Jan-10 14:00N 40°40' W 074°04'0 0.0
2018-Jan-10 13:30N 40°40' W 074°04'0 0.0
2018-Jan-10 13:00N 40°40' W 074°04'0 0.0
2018-Jan-10 12:30N 40°40' W 074°04'0 0.0
2018-Jan-10 12:01N 40°40' W 074°04'0 0.0
2018-Jan-10 11:30N 40°40' W 074°04'1 1.0
2018-Jan-10 10:53N 40°40' W 074°05'1 1.6
2018-Jan-10 10:30N 40°40' W 074°04'2 3.4
2018-Jan-10 09:56N 40°39' W 074°06'2 3.8
2018-Jan-10 09:30N 40°40' W 074°05'0 0.0
2018-Jan-10 08:56N 40°40' W 074°05'0 0.0
2018-Jan-10 08:28N 40°40' W 074°05'2 3.9
2018-Jan-10 08:01N 40°39' W 074°07'0 0.2
2018-Jan-10 07:29N 40°39' W 074°07'1 2.3
2018-Jan-10 07:00N 40°39' W 074°05'1 2.5
2018-Jan-10 06:30N 40°40' W 074°04'3 6.5
2018-Jan-10 06:01N 40°41' W 074°00'0 0.1
2018-Jan-10 05:31N 40°42' W 074°00'0 0.1
2018-Jan-10 05:01N 40°42' W 074°00'1 3.0
2018-Jan-10 04:30N 40°40' W 074°00'2 3.5
2018-Jan-10 04:00N 40°39' W 074°02'1 2.2
2018-Jan-10 03:30N 40°40' W 074°01'1 1.4
2018-Jan-10 03:01N 40°40' W 074°00'0 0.1
2018-Jan-10 02:30N 40°40' W 074°00'0 0.2
2018-Jan-10 02:00N 40°40' W 074°00'2 4.8
2018-Jan-10 01:30N 40°39' W 074°03'1 1.9
2018-Jan-10 01:00N 40°40' W 074°04'0 0.0
2018-Jan-10 00:30N 40°40' W 074°04'0 0.0
2018-Jan-10 00:00N 40°40' W 074°04'0 0.0
2018-Jan-09 23:30N 40°40' W 074°04'0 0.0
2018-Jan-09 23:00N 40°40' W 074°04'2 3.3
2018-Jan-09 22:30N 40°39' W 074°06'2 0.9
2018-Jan-09 19:47N 40°39' W 074°09'3 9.7
2018-Jan-09 19:30N 40°39' W 074°05'4 8.8
2018-Jan-09 19:00N 40°41' W 074°00'1 1.9
2018-Jan-09 18:31N 40°41' W 074°01'1 2.1
2018-Jan-09 18:00N 40°40' W 074°00'0 0.0
2018-Jan-09 17:30N 40°40' W 074°00'0 0.4
2018-Jan-09 17:00N 40°40' W 074°00'2 3.9
2018-Jan-09 16:30N 40°39' W 074°02'2 3.7
2018-Jan-09 16:00N 40°40' W 074°04'0 0.0
2018-Jan-09 15:30N 40°40' W 074°04'0 0.0
2018-Jan-09 15:00N 40°40' W 074°04'0 0.0
2018-Jan-09 14:30N 40°40' W 074°04'0 0.0
2018-Jan-09 14:00N 40°40' W 074°04'0 0.0
2018-Jan-09 13:30N 40°40' W 074°04'0 0.0
2018-Jan-09 13:00N 40°40' W 074°04'0 0.0
2018-Jan-09 12:30N 40°40' W 074°04'0 0.0
2018-Jan-09 12:00N 40°40' W 074°04'0 0.0
2018-Jan-09 11:30N 40°40' W 074°04'1 2.6
2018-Jan-09 11:00N 40°39' W 074°05'0 0.3
2018-Jan-09 10:30N 40°39' W 074°06'3 5.0
2018-Jan-09 10:00N 40°40' W 074°03'2 3.0
2018-Jan-09 09:30N 40°41' W 074°01'5 1.6
2018-Jan-09 06:45N 40°44' W 073°56'1 2.5
2018-Jan-09 06:16N 40°44' W 073°58'310.8
2018-Jan-09 06:00N 40°42' W 074°01'2 4.2
2018-Jan-09 05:30N 40°41' W 074°03'3 5.5
2018-Jan-09 05:00N 40°39' W 074°06'2 3.6
2018-Jan-09 04:24N 40°39' W 074°08'2 2.2
2018-Jan-09 03:24N 40°41' W 074°09'1 1.6
2018-Jan-09 03:00N 40°40' W 074°08'0 0.1
2018-Jan-09 02:28N 40°40' W 074°08'2 2.7
2018-Jan-09 01:49N 40°39' W 074°07'0 0.3
2018-Jan-09 01:29N 40°39' W 074°07'3 6.4
2018-Jan-09 01:00N 40°39' W 074°03'2 4.6
2018-Jan-09 00:30N 40°40' W 074°00'0 0.0
2018-Jan-09 00:00N 40°40' W 074°00'0 0.0
2018-Jan-08 23:30N 40°40' W 074°00'0 0.1
2018-Jan-08 23:00N 40°40' W 074°00'0 0.1
2018-Jan-08 22:30N 40°40' W 074°00'0 0.1
2018-Jan-08 22:00N 40°40' W 074°00'0 0.0
2018-Jan-08 21:30N 40°40' W 074°00'1 2.2
2018-Jan-08 21:00N 40°41' W 074°01'1 0.6
2018-Jan-08 18:35N 40°42' W 073°60'1 9.7
2018-Jan-08 18:30N 40°41' W 074°00'1 2.9
2018-Jan-08 18:00N 40°40' W 074°01'0 0.0
2018-Jan-08 17:30N 40°40' W 074°01'0 0.0
2018-Jan-08 17:00N 40°40' W 074°01'0 0.0
2018-Jan-08 16:30N 40°40' W 074°01'3 6.5
2018-Jan-08 16:00N 40°39' W 074°05'4 8.3
2018-Jan-08 15:30N 40°39' W 074°10'1 0.4
2018-Jan-08 13:51N 40°39' W 074°11'4 8.6
2018-Jan-08 13:21N 40°39' W 074°06'3 7.8
2018-Jan-08 13:00N 40°39' W 074°02'1 2.8
2018-Jan-08 12:30N 40°40' W 074°00'1 1.4
2018-Jan-08 12:00N 40°40' W 074°01'5 9.1
2018-Jan-08 11:30N 40°39' W 074°07'4 2.4
2018-Jan-08 09:46N 40°37' W 074°12'3 6.3
2018-Jan-08 09:21N 40°39' W 074°09'3 7.2
2018-Jan-08 08:55N 40°39' W 074°05'3 7.7
2018-Jan-08 08:30N 40°40' W 074°01'0 0.4
2018-Jan-08 08:00N 40°40' W 074°01'2 3.3
2018-Jan-08 07:30N 40°41' W 074°03'1 1.9
2018-Jan-08 07:00N 40°40' W 074°03'4 2.1
2018-Jan-08 05:08N 40°41' W 074°08'0 0.2
2018-Jan-08 03:33N 40°41' W 074°08'110.6
2018-Jan-08 03:30N 40°40' W 074°08'3 5.8
2018-Jan-08 03:00N 40°39' W 074°05'1 2.6
2018-Jan-08 02:30N 40°39' W 074°03'  

Dump ship's entire track history